Time;durP1;ratioP1;P1;durP2;ratioP2;P2;SDS_P1;SDS_P2;PMS_P1;PMS_P2;Temp;Humidity;BMP_temperature;BMP_pressure;BME280_temperature;BME280_humidity;BME280_pressure;Samples;Min_cycle;Max_cycle;Signal;HPM_P1;HPM_P2
2022/02/18 00:01:52;;;;;;;;;9.00;8.33;;;;;;;;5073168;27;45479;-90
2022/02/18 00:04:17;;;;;;;;;8.33;5.00;;;;;;;;5058750;28;45349;-90
2022/02/18 00:06:42;;;;;;;;;7.00;5.33;;;;;;;;5055415;28;47113;-92
2022/02/18 00:09:08;;;;;;;;;7.33;4.33;;;;;;;;5049350;28;45353;-92
2022/02/18 00:11:33;;;;;;;;;8.33;5.00;;;;;;;;5055706;28;45577;-92
2022/02/18 00:13:58;;;;;;;;;5.67;5.00;;;;;;;;5057914;27;45522;-92
2022/02/18 00:16:24;;;;;;;;;7.33;6.00;;;;;;;;5058558;28;47430;-92
2022/02/18 00:18:49;;;;;;;;;7.00;5.33;;;;;;;;5057476;28;45653;-92
2022/02/18 00:21:14;;;;;;;;;6.00;3.00;;;;;;;;5056991;27;45723;-92
2022/02/18 00:23:40;;;;;;;;;9.00;5.33;;;;;;;;5051083;28;45585;-92
2022/02/18 00:26:05;;;;;;;;;6.00;4.00;;;;;;;;5058382;28;46965;-92
2022/02/18 00:28:30;;;;;;;;;5.00;4.00;;;;;;;;5076133;27;45433;-92
2022/02/18 00:30:56;;;;;;;;;10.00;5.00;;;;;;;;5057953;28;45403;-92
2022/02/18 00:33:21;;;;;;;;;7.33;5.00;;;;;;;;5056754;27;45698;-92
2022/02/18 00:35:46;;;;;;;;;10.33;6.67;;;;;;;;5054600;28;48305;-92
2022/02/18 00:38:11;;;;;;;;;8.67;5.00;;;;;;;;5054123;28;45875;-92
2022/02/18 00:40:37;;;;;;;;;11.00;7.33;;;;;;;;5059077;28;45471;-92
2022/02/18 00:43:02;;;;;;;;;3.00;3.00;;;;;;;;5054668;28;45496;-92
2022/02/18 00:45:29;;;;;;;;;4.33;3.00;;;;;;;;5057395;28;46885;-92
2022/02/18 00:47:54;;;;;;;;;2.67;2.00;;;;;;;;5057384;28;45701;-92
2022/02/18 00:50:21;;;;;;;;;9.00;4.00;;;;;;;;5057744;28;45493;-92
2022/02/18 00:52:46;;;;;;;;;9.00;6.00;;;;;;;;5057780;28;45447;-91
2022/02/18 00:55:12;;;;;;;;;10.67;4.00;;;;;;;;5055863;28;47057;-92
2022/02/18 00:57:38;;;;;;;;;10.67;5.33;;;;;;;;5057245;28;45910;-92
2022/02/18 01:00:04;;;;;;;;;9.00;4.67;;;;;;;;5057806;28;45384;-92
2022/02/18 01:02:29;;;;;;;;;9.33;4.33;;;;;;;;5057307;28;45550;-92
2022/02/18 01:04:55;;;;;;;;;5.33;5.00;;;;;;;;5057295;28;47604;-92
2022/02/18 01:07:20;;;;;;;;;7.00;5.00;;;;;;;;5054414;28;45439;-91
2022/02/18 01:09:45;;;;;;;;;11.00;7.00;;;;;;;;5057038;28;45522;-92
2022/02/18 01:12:11;;;;;;;;;7.00;4.33;;;;;;;;5057219;28;45408;-92
2022/02/18 01:14:36;;;;;;;;;9.67;6.33;;;;;;;;5072801;27;45478;-92
2022/02/18 01:17:01;;;;;;;;;5.00;3.67;;;;;;;;5057083;28;46153;-92
2022/02/18 01:19:26;;;;;;;;;11.33;4.67;;;;;;;;5057511;28;45406;-93
2022/02/18 01:21:52;;;;;;;;;6.00;6.00;;;;;;;;5072408;27;46305;-92
2022/02/18 01:24:17;;;;;;;;;8.67;4.67;;;;;;;;5057316;28;48210;-93
2022/02/18 01:26:42;;;;;;;;;5.33;4.67;;;;;;;;5056512;28;45803;-92
2022/02/18 01:29:08;;;;;;;;;5.00;5.00;;;;;;;;5055419;28;45348;-91
2022/02/18 01:31:33;;;;;;;;;5.00;4.33;;;;;;;;5057956;28;45382;-92
2022/02/18 01:33:58;;;;;;;;;10.00;5.00;;;;;;;;5056896;28;47072;-92
2022/02/18 01:36:24;;;;;;;;;5.33;5.33;;;;;;;;5054827;28;45758;-93
2022/02/18 01:38:50;;;;;;;;;5.67;3.00;;;;;;;;5056689;28;45431;-92
2022/02/18 01:41:15;;;;;;;;;5.00;3.00;;;;;;;;5053421;28;45412;-92
2022/02/18 01:43:53;;;;;;;;;7.67;4.33;;;;;;;;5040818;28;47304;-92
2022/02/18 01:46:19;;;;;;;;;5.00;2.67;;;;;;;;5057298;28;45395;-92
2022/02/18 01:48:44;;;;;;;;;7.33;4.00;;;;;;;;5045746;28;45734;-92
2022/02/18 01:51:10;;;;;;;;;2.67;2.67;;;;;;;;5041330;28;45567;-92
2022/02/18 01:53:36;;;;;;;;;4.33;4.33;;;;;;;;5075269;27;45546;-92
2022/02/18 01:56:01;;;;;;;;;4.00;3.00;;;;;;;;5057466;27;45878;-92
2022/02/18 01:58:27;;;;;;;;;3.00;1.00;;;;;;;;5056758;28;45468;-92
2022/02/18 02:00:52;;;;;;;;;6.67;5.33;;;;;;;;5056937;28;45570;-91
2022/02/18 02:03:18;;;;;;;;;3.67;3.00;;;;;;;;5057089;28;48298;-92
2022/02/18 02:05:44;;;;;;;;;4.67;3.67;;;;;;;;5056719;28;45371;-91
2022/02/18 02:08:11;;;;;;;;;4.00;4.00;;;;;;;;5056725;28;46342;-92
2022/02/18 02:10:37;;;;;;;;;4.00;4.00;;;;;;;;5057691;28;45495;-92
2022/02/18 02:13:02;;;;;;;;;5.33;3.00;;;;;;;;5055665;28;47728;-91
2022/02/18 02:15:27;;;;;;;;;5.00;5.00;;;;;;;;5048009;27;45861;-92
2022/02/18 02:17:53;;;;;;;;;4.33;4.33;;;;;;;;5052684;28;45370;-91
2022/02/18 02:20:18;;;;;;;;;9.67;3.33;;;;;;;;5056364;28;45483;-91
2022/02/18 02:22:44;;;;;;;;;5.00;3.67;;;;;;;;5056680;28;47348;-92
2022/02/18 02:25:09;;;;;;;;;4.00;4.00;;;;;;;;5037918;28;45360;-91
2022/02/18 02:27:35;;;;;;;;;2.33;2.00;;;;;;;;5047929;28;45391;-92
2022/02/18 02:30:01;;;;;;;;;4.67;3.33;;;;;;;;5055528;28;45495;-92
2022/02/18 02:32:26;;;;;;;;;7.67;3.00;;;;;;;;5053418;28;48224;-92
2022/02/18 02:34:52;;;;;;;;;2.33;2.33;;;;;;;;5057128;28;45534;-92
2022/02/18 02:37:17;;;;;;;;;3.00;3.00;;;;;;;;5048219;28;46097;-92
2022/02/18 02:39:42;;;;;;;;;3.00;3.00;;;;;;;;5073625;28;45493;-92
2022/02/18 02:42:07;;;;;;;;;5.33;3.00;;;;;;;;5055128;28;47387;-92
2022/02/18 02:44:33;;;;;;;;;2.33;2.00;;;;;;;;5054422;28;45732;-91
2022/02/18 02:46:58;;;;;;;;;3.33;2.67;;;;;;;;5057175;28;45505;-92
2022/02/18 02:49:24;;;;;;;;;2.33;2.00;;;;;;;;5056999;28;45613;-92
2022/02/18 02:51:49;;;;;;;;;4.00;2.00;;;;;;;;5057216;28;48160;-92
2022/02/18 02:54:15;;;;;;;;;2.67;2.33;;;;;;;;5079697;27;45404;-92
2022/02/18 02:56:40;;;;;;;;;3.33;3.00;;;;;;;;5085807;27;44853;-92
2022/02/18 02:59:06;;;;;;;;;4.00;3.33;;;;;;;;5084244;28;44789;-92
2022/02/18 03:01:31;;;;;;;;;3.00;3.00;;;;;;;;5086881;27;46939;-92
2022/02/18 03:03:56;;;;;;;;;3.00;1.67;;;;;;;;5086798;28;44758;-93
2022/02/18 03:06:22;;;;;;;;;3.33;3.00;;;;;;;;5055806;28;45385;-92
2022/02/18 03:08:47;;;;;;;;;4.00;3.00;;;;;;;;5052526;28;45269;-93
2022/02/18 03:11:15;;;;;;;;;3.67;3.00;;;;;;;;5040527;28;47383;-92
2022/02/18 03:13:41;;;;;;;;;1.67;1.00;;;;;;;;5060282;28;45561;-91
2022/02/18 03:16:08;;;;;;;;;2.67;2.67;;;;;;;;5059452;28;45594;-92
2022/02/18 03:18:33;;;;;;;;;1.67;1.67;;;;;;;;5059904;28;45560;-91
2022/02/18 03:20:58;;;;;;;;;4.00;3.00;;;;;;;;5059798;28;47146;-92
2022/02/18 03:23:24;;;;;;;;;1.33;1.33;;;;;;;;5073451;27;45392;-92
2022/02/18 03:25:49;;;;;;;;;4.67;2.67;;;;;;;;5060658;28;45497;-91
2022/02/18 03:28:14;;;;;;;;;2.67;2.67;;;;;;;;5051865;28;45478;-92
2022/02/18 03:30:40;;;;;;;;;1.67;1.00;;;;;;;;5059390;28;48252;-92
2022/02/18 03:33:05;;;;;;;;;2.00;2.00;;;;;;;;5059388;28;46365;-92
2022/02/18 03:35:30;;;;;;;;;2.00;1.00;;;;;;;;5056090;28;45368;-91
2022/02/18 03:37:56;;;;;;;;;0.67;0.67;;;;;;;;5057771;28;45360;-92
2022/02/18 03:40:21;;;;;;;;;1.00;1.00;;;;;;;;5059733;28;46078;-93
2022/02/18 03:42:47;;;;;;;;;0.00;0.00;;;;;;;;5055035;28;45464;-92
2022/02/18 03:45:12;;;;;;;;;0.00;0.00;;;;;;;;5050782;28;45449;-92
2022/02/18 03:47:37;;;;;;;;;0.00;0.00;;;;;;;;5055694;28;45678;-92
2022/02/18 03:50:03;;;;;;;;;0.00;0.00;;;;;;;;5074436;27;45387;-92
2022/02/18 03:52:28;;;;;;;;;0.00;0.00;;;;;;;;5058864;28;45473;-92
2022/02/18 03:54:53;;;;;;;;;0.00;0.00;;;;;;;;5046073;28;45462;-91
2022/02/18 03:57:19;;;;;;;;;0.00;0.00;;;;;;;;5050017;28;45486;-93
2022/02/18 03:59:44;;;;;;;;;0.00;0.00;;;;;;;;5057641;28;47468;-92
2022/02/18 04:02:09;;;;;;;;;0.00;0.00;;;;;;;;5058216;28;46149;-92
2022/02/18 04:04:34;;;;;;;;;0.00;0.00;;;;;;;;5056661;28;45427;-93
2022/02/18 04:07:00;;;;;;;;;0.00;0.00;;;;;;;;5074986;27;45674;-92
2022/02/18 04:09:25;;;;;;;;;0.00;0.00;;;;;;;;5058579;28;47172;-92
2022/02/18 04:11:50;;;;;;;;;0.00;0.00;;;;;;;;5058202;28;45476;-92
2022/02/18 04:14:15;;;;;;;;;0.00;0.00;;;;;;;;5059338;27;45502;-93
2022/02/18 04:16:41;;;;;;;;;1.00;0.00;;;;;;;;5059554;28;45628;-92
2022/02/18 04:19:06;;;;;;;;;0.00;0.00;;;;;;;;5058520;28;48195;-92
2022/02/18 04:21:31;;;;;;;;;0.00;0.00;;;;;;;;5054109;27;45704;-93
2022/02/18 04:23:57;;;;;;;;;0.00;0.00;;;;;;;;5072987;28;45545;-93
2022/02/18 04:26:22;;;;;;;;;2.00;1.00;;;;;;;;5054197;28;45364;-93
2022/02/18 04:28:48;;;;;;;;;1.00;0.00;;;;;;;;5059125;28;47351;-93
2022/02/18 04:31:13;;;;;;;;;0.00;0.00;;;;;;;;5058835;28;45918;-92
2022/02/18 04:33:39;;;;;;;;;0.00;0.00;;;;;;;;5058468;28;45508;-93
2022/02/18 04:36:04;;;;;;;;;0.00;0.00;;;;;;;;5057714;28;45638;-93
2022/02/18 04:38:29;;;;;;;;;0.00;0.00;;;;;;;;5054965;28;47283;-93
2022/02/18 04:40:55;;;;;;;;;0.00;0.00;;;;;;;;5057904;27;45738;-91
2022/02/18 04:43:20;;;;;;;;;0.00;0.00;;;;;;;;5057831;27;45451;-92
2022/02/18 04:45:45;;;;;;;;;0.00;0.00;;;;;;;;5047120;28;48956;-92
2022/02/18 04:48:10;;;;;;;;;0.00;0.00;;;;;;;;5048027;28;47066;-92
2022/02/18 04:50:35;;;;;;;;;0.00;0.00;;;;;;;;5049027;28;45512;-93
2022/02/18 04:53:01;;;;;;;;;1.67;0.00;;;;;;;;5056782;28;45358;-91
2022/02/18 04:55:26;;;;;;;;;0.00;0.00;;;;;;;;5058133;28;45474;-91
2022/02/18 04:57:51;;;;;;;;;0.33;0.33;;;;;;;;5057632;28;47511;-93
2022/02/18 05:00:17;;;;;;;;;0.00;0.00;;;;;;;;5057807;28;45488;-91
2022/02/18 05:02:42;;;;;;;;;0.00;0.00;;;;;;;;5057298;28;45542;-92
2022/02/18 05:05:08;;;;;;;;;0.00;0.00;;;;;;;;5058267;28;45416;-92
2022/02/18 05:07:33;;;;;;;;;0.00;0.00;;;;;;;;5058042;27;47018;-92
2022/02/18 05:10:01;;;;;;;;;0.00;0.00;;;;;;;;5057206;27;45558;-92
2022/02/18 05:12:27;;;;;;;;;0.00;0.00;;;;;;;;5057694;28;45798;-92
2022/02/18 05:14:52;;;;;;;;;0.00;0.00;;;;;;;;5076085;27;45510;-92
2022/02/18 05:17:18;;;;;;;;;0.00;0.00;;;;;;;;5070582;27;45528;-93
2022/02/18 05:19:43;;;;;;;;;0.00;0.00;;;;;;;;5057852;28;45553;-93
2022/02/18 05:22:08;;;;;;;;;0.00;0.00;;;;;;;;5049056;28;45503;-91
2022/02/18 05:24:33;;;;;;;;;0.00;0.00;;;;;;;;5057230;28;45473;-92
2022/02/18 05:26:59;;;;;;;;;0.00;0.00;;;;;;;;5052199;28;48446;-93
2022/02/18 05:29:24;;;;;;;;;0.67;0.67;;;;;;;;5039812;28;45613;-91
2022/02/18 05:31:49;;;;;;;;;0.00;0.00;;;;;;;;5076350;28;45719;-93
2022/02/18 05:34:14;;;;;;;;;0.33;0.00;;;;;;;;5056347;27;45376;-95
2022/02/18 05:36:40;;;;;;;;;0.00;0.00;;;;;;;;5054254;28;47059;-92
2022/02/18 05:39:05;;;;;;;;;1.33;0.00;;;;;;;;5055071;28;45642;-93
2022/02/18 05:41:31;;;;;;;;;0.00;0.00;;;;;;;;5057697;27;45359;-92
2022/02/18 05:43:56;;;;;;;;;0.00;0.00;;;;;;;;5075213;27;45285;-93
2022/02/18 05:46:21;;;;;;;;;0.00;0.00;;;;;;;;5073314;28;45330;-92
2022/02/18 05:48:46;;;;;;;;;0.00;0.00;;;;;;;;5053804;28;45768;-93
2022/02/18 05:51:11;;;;;;;;;0.00;0.00;;;;;;;;5052691;27;45474;-92
2022/02/18 05:53:37;;;;;;;;;0.00;0.00;;;;;;;;5075380;27;45289;-92
2022/02/18 05:56:02;;;;;;;;;0.00;0.00;;;;;;;;5056150;28;48017;-93
2022/02/18 05:58:27;;;;;;;;;0.00;0.00;;;;;;;;5057103;28;45340;-92
2022/02/18 06:00:53;;;;;;;;;0.00;0.00;;;;;;;;5071614;28;45379;-92
2022/02/18 06:03:18;;;;;;;;;1.00;0.00;;;;;;;;5073462;28;45406;-93
2022/02/18 06:05:43;;;;;;;;;1.33;0.00;;;;;;;;5057083;28;47359;-93
2022/02/18 06:08:10;;;;;;;;;0.00;0.00;;;;;;;;5057570;28;45468;-93
2022/02/18 06:10:35;;;;;;;;;0.00;0.00;;;;;;;;5057745;28;45461;-92
2022/02/18 06:13:01;;;;;;;;;1.00;0.00;;;;;;;;5057127;28;45344;-93
2022/02/18 06:15:26;;;;;;;;;1.00;0.00;;;;;;;;5057405;28;47296;-92
2022/02/18 06:17:52;;;;;;;;;1.00;0.00;;;;;;;;5052380;28;45849;-92
2022/02/18 06:20:17;;;;;;;;;0.00;0.00;;;;;;;;5036821;28;45340;-93
2022/02/18 06:22:42;;;;;;;;;0.00;0.00;;;;;;;;5074848;28;45544;-92
2022/02/18 06:25:09;;;;;;;;;1.00;0.00;;;;;;;;5046887;28;47383;-93
2022/02/18 06:27:34;;;;;;;;;0.00;0.00;;;;;;;;5040965;28;45584;-93
2022/02/18 06:30:00;;;;;;;;;0.00;0.00;;;;;;;;5053905;28;45590;-92
2022/02/18 06:32:25;;;;;;;;;0.00;0.00;;;;;;;;5052069;28;47328;-93
2022/02/18 06:34:51;;;;;;;;;0.67;0.67;;;;;;;;5037899;28;47080;-93
2022/02/18 06:37:16;;;;;;;;;0.00;0.00;;;;;;;;5037983;28;45960;-93
2022/02/18 06:39:43;;;;;;;;;0.00;0.00;;;;;;;;5041162;28;45261;-93
2022/02/18 06:42:08;;;;;;;;;0.33;0.00;;;;;;;;5060928;28;45223;-92
2022/02/18 06:44:33;;;;;;;;;0.00;0.00;;;;;;;;5075240;28;47203;-93
2022/02/18 06:46:59;;;;;;;;;2.00;2.00;;;;;;;;5084694;27;46376;-93
2022/02/18 06:49:24;;;;;;;;;1.67;1.67;;;;;;;;5081935;28;44802;-91
2022/02/18 06:51:55;;;;;;;;;1.33;0.00;;;;;;;;5056448;28;45601;-92
2022/02/18 06:54:21;;;;;;;;;0.00;0.00;;;;;;;;5056269;28;47155;-92
2022/02/18 06:56:46;;;;;;;;;0.00;0.00;;;;;;;;5066145;27;46158;-92
2022/02/18 06:59:11;;;;;;;;;0.00;0.00;;;;;;;;5072393;28;45749;-93
2022/02/18 07:02:00;;;;;;;;;0.00;0.00;;;;;;;;5064870;28;45529;-93
2022/02/18 07:04:55;;;;;;;;;2.00;0.33;;;;;;;;5063903;28;47391;-93
2022/02/18 07:07:20;;;;;;;;;0.00;0.00;;;;;;;;5071877;28;45382;-93
2022/02/18 07:09:45;;;;;;;;;0.00;0.00;;;;;;;;5056256;28;45485;-92
2022/02/18 07:12:10;;;;;;;;;0.00;0.00;;;;;;;;5053410;27;45509;-93
2022/02/18 07:14:35;;;;;;;;;0.00;0.00;;;;;;;;5054345;28;47193;-93
2022/02/18 07:17:01;;;;;;;;;1.00;1.00;;;;;;;;5055984;28;46006;-93
2022/02/18 07:19:27;;;;;;;;;0.00;0.00;;;;;;;;5057265;28;45406;-94
2022/02/18 07:21:53;;;;;;;;;1.00;0.00;;;;;;;;5045139;28;45404;-94
2022/02/18 07:24:18;;;;;;;;;0.67;0.67;;;;;;;;5048601;28;47838;-86
2022/02/18 07:26:43;;;;;;;;;2.00;0.00;;;;;;;;5068178;28;45491;-85
2022/02/18 07:29:08;;;;;;;;;2.00;1.00;;;;;;;;5071422;28;45519;-86
2022/02/18 07:31:35;;;;;;;;;1.00;0.00;;;;;;;;5070558;28;45712;-88
2022/02/18 07:34:00;;;;;;;;;1.00;1.00;;;;;;;;5052254;28;47383;-87
2022/02/18 07:36:25;;;;;;;;;1.33;0.00;;;;;;;;5069675;27;45479;-86
2022/02/18 07:38:50;;;;;;;;;1.00;1.00;;;;;;;;5050893;27;45850;-85
2022/02/18 07:41:16;;;;;;;;;1.00;1.00;;;;;;;;5073940;27;45419;-85
2022/02/18 07:43:41;;;;;;;;;0.67;0.00;;;;;;;;5046434;28;47401;-83
2022/02/18 07:46:06;;;;;;;;;2.00;0.00;;;;;;;;5070785;28;45800;-84
2022/02/18 07:48:32;;;;;;;;;0.00;0.00;;;;;;;;5072525;28;45429;-84
2022/02/18 07:50:57;;;;;;;;;1.67;0.00;;;;;;;;5071729;28;45304;-84
2022/02/18 07:53:22;;;;;;;;;2.00;1.00;;;;;;;;5064109;28;45396;-84
2022/02/18 07:55:48;;;;;;;;;2.00;0.00;;;;;;;;5076108;28;45504;-84
2022/02/18 07:58:13;;;;;;;;;1.67;0.00;;;;;;;;5071508;28;45275;-85
2022/02/18 08:00:39;;;;;;;;;1.00;1.00;;;;;;;;5056906;28;45352;-85
2022/02/18 08:03:04;;;;;;;;;0.00;0.00;;;;;;;;5074549;28;46369;-85
2022/02/18 08:05:29;;;;;;;;;2.00;1.00;;;;;;;;5055242;28;46213;-84
2022/02/18 08:07:57;;;;;;;;;2.00;0.00;;;;;;;;5057625;28;45547;-85
2022/02/18 08:10:23;;;;;;;;;1.33;0.00;;;;;;;;5074523;28;45396;-84
2022/02/18 08:12:48;;;;;;;;;3.67;2.00;;;;;;;;5074827;28;46348;-85
2022/02/18 08:15:13;;;;;;;;;0.00;0.00;;;;;;;;5069410;28;45486;-84
2022/02/18 08:17:38;;;;;;;;;1.00;1.00;;;;;;;;5072488;27;45313;-83
2022/02/18 08:20:04;;;;;;;;;2.00;0.00;;;;;;;;5073530;27;45437;-83
2022/02/18 08:22:30;;;;;;;;;2.00;0.00;;;;;;;;5064539;28;46366;-82
2022/02/18 08:24:55;;;;;;;;;0.00;0.00;;;;;;;;5057229;28;45423;-82
2022/02/18 08:27:20;;;;;;;;;0.00;0.00;;;;;;;;5069866;27;45504;-83
2022/02/18 08:29:45;;;;;;;;;0.00;0.00;;;;;;;;5071591;27;45570;-83
2022/02/18 08:32:11;;;;;;;;;0.00;0.00;;;;;;;;5067280;27;46644;-85
2022/02/18 08:34:36;;;;;;;;;2.00;1.00;;;;;;;;5070614;28;46055;-83
2022/02/18 08:37:02;;;;;;;;;0.67;0.00;;;;;;;;5051535;28;45643;-83
2022/02/18 08:39:27;;;;;;;;;0.00;0.00;;;;;;;;5072019;28;45703;-83
2022/02/18 08:41:52;;;;;;;;;0.33;0.33;;;;;;;;5054138;28;47422;-83
2022/02/18 08:44:19;;;;;;;;;0.00;0.00;;;;;;;;5052752;28;45605;-84
2022/02/18 08:46:44;;;;;;;;;0.00;0.00;;;;;;;;5073315;28;45522;-84
2022/02/18 08:49:10;;;;;;;;;0.00;0.00;;;;;;;;5072030;27;45316;-84
2022/02/18 08:51:35;;;;;;;;;0.00;0.00;;;;;;;;5052444;28;47656;-84
2022/02/18 08:54:00;;;;;;;;;1.00;1.00;;;;;;;;5053221;28;45527;-84
2022/02/18 08:56:26;;;;;;;;;0.67;0.00;;;;;;;;5068551;28;45687;-84
2022/02/18 08:58:52;;;;;;;;;0.00;0.00;;;;;;;;5073401;28;45465;-84
2022/02/18 09:01:17;;;;;;;;;0.00;0.00;;;;;;;;5070234;28;45875;-84
2022/02/18 09:03:42;;;;;;;;;0.00;0.00;;;;;;;;5072806;28;45898;-84
2022/02/18 09:06:08;;;;;;;;;0.00;0.00;;;;;;;;5053832;28;45431;-83
2022/02/18 09:08:34;;;;;;;;;1.00;0.67;;;;;;;;5067709;28;45408;-84
2022/02/18 09:10:59;;;;;;;;;0.00;0.00;;;;;;;;5064224;27;45576;-84
2022/02/18 09:13:25;;;;;;;;;0.00;0.00;;;;;;;;5052959;28;45684;-84
2022/02/18 09:15:50;;;;;;;;;0.33;0.33;;;;;;;;5069505;27;45586;-83
2022/02/18 09:18:16;;;;;;;;;0.00;0.00;;;;;;;;5050525;28;45807;-84
2022/02/18 09:20:41;;;;;;;;;0.00;0.00;;;;;;;;5069305;27;45462;-84
2022/02/18 09:23:06;;;;;;;;;0.00;0.00;;;;;;;;5052508;27;45775;-84
2022/02/18 09:25:32;;;;;;;;;0.67;0.00;;;;;;;;5065550;28;45410;-84
2022/02/18 09:27:59;;;;;;;;;0.00;0.00;;;;;;;;5046387;28;45486;-84
2022/02/18 09:30:24;;;;;;;;;0.00;0.00;;;;;;;;5065112;28;45871;-84
2022/02/18 09:32:49;;;;;;;;;0.00;0.00;;;;;;;;5047431;28;45701;-84
2022/02/18 09:35:14;;;;;;;;;0.00;0.00;;;;;;;;5047288;27;45480;-85
2022/02/18 09:37:41;;;;;;;;;0.00;0.00;;;;;;;;5050012;28;45516;-85
2022/02/18 09:40:07;;;;;;;;;1.00;0.00;;;;;;;;5068229;27;46323;-85
2022/02/18 09:42:33;;;;;;;;;0.00;0.00;;;;;;;;5066669;27;45836;-84
2022/02/18 09:44:59;;;;;;;;;0.00;0.00;;;;;;;;5064094;27;45501;-85
2022/02/18 09:47:24;;;;;;;;;0.00;0.00;;;;;;;;5064003;28;45632;-85
2022/02/18 09:49:52;;;;;;;;;1.00;0.00;;;;;;;;5051520;28;47187;-85
2022/02/18 09:52:17;;;;;;;;;0.00;0.00;;;;;;;;5049266;28;45461;-85
2022/02/18 09:54:42;;;;;;;;;0.00;0.00;;;;;;;;5050175;28;46831;-85
2022/02/18 09:57:08;;;;;;;;;0.00;0.00;;;;;;;;5047854;28;45460;-84
2022/02/18 09:59:34;;;;;;;;;2.00;1.00;;;;;;;;5047658;28;46565;-85
2022/02/18 10:02:01;;;;;;;;;1.33;1.00;;;;;;;;5049382;28;45525;-84
2022/02/18 10:04:26;;;;;;;;;2.00;0.00;;;;;;;;5050708;28;45525;-84
2022/02/18 10:06:52;;;;;;;;;0.00;0.00;;;;;;;;5055237;28;45469;-84
2022/02/18 10:09:35;;;;;;;;;0.00;0.00;;;;;;;;5053058;27;45514;-84
2022/02/18 10:12:00;;;;;;;;;0.00;0.00;;;;;;;;5045638;28;45537;-85
2022/02/18 10:14:26;;;;;;;;;0.00;0.00;;;;;;;;5048266;28;45530;-85
2022/02/18 10:16:51;;;;;;;;;0.00;0.00;;;;;;;;5052062;28;45677;-85
2022/02/18 10:19:16;;;;;;;;;0.00;0.00;;;;;;;;5047761;28;46233;-84
2022/02/18 10:21:44;;;;;;;;;2.00;1.00;;;;;;;;5049864;28;47063;-85
2022/02/18 10:24:17;;;;;;;;;0.00;0.00;;;;;;;;5047981;28;45652;-85
2022/02/18 10:26:43;;;;;;;;;0.00;0.00;;;;;;;;5041213;28;45633;-85
2022/02/18 10:29:09;;;;;;;;;0.00;0.00;;;;;;;;5048595;28;46447;-85
2022/02/18 10:31:35;;;;;;;;;1.00;0.00;;;;;;;;5051481;28;45425;-84
2022/02/18 10:34:01;;;;;;;;;0.00;0.00;;;;;;;;5052863;28;45407;-84
2022/02/18 10:36:34;;;;;;;;;1.00;0.00;;;;;;;;5054438;28;45451;-84
2022/02/18 10:38:59;;;;;;;;;0.00;0.00;;;;;;;;5057952;28;47663;-85
2022/02/18 10:41:29;;;;;;;;;0.00;0.00;;;;;;;;5051612;28;45570;-85
2022/02/18 10:44:01;;;;;;;;;0.00;0.00;;;;;;;;5052162;28;45575;-85
2022/02/18 10:46:45;;;;;;;;;0.00;0.00;;;;;;;;5053351;28;45433;-84
2022/02/18 10:49:22;;;;;;;;;0.00;0.00;;;;;;;;5050258;28;45774;-85
2022/02/18 10:51:50;;;;;;;;;0.00;0.00;;;;;;;;5066113;27;45289;-84
2022/02/18 10:54:16;;;;;;;;;0.00;0.00;;;;;;;;5069116;27;45641;-85
2022/02/18 10:56:41;;;;;;;;;0.00;0.00;;;;;;;;5052001;28;45375;-86
2022/02/18 10:59:08;;;;;;;;;0.00;0.00;;;;;;;;5053567;28;47879;-86
2022/02/18 11:01:33;;;;;;;;;0.00;0.00;;;;;;;;5065113;27;47598;-87
2022/02/18 11:03:59;;;;;;;;;0.00;0.00;;;;;;;;5069015;28;45444;-89
2022/02/18 11:06:25;;;;;;;;;0.00;0.00;;;;;;;;5069795;27;45478;-88
2022/02/18 11:08:50;;;;;;;;;0.00;0.00;;;;;;;;5052824;28;47575;-86
2022/02/18 11:11:16;;;;;;;;;1.00;1.00;;;;;;;;5067262;27;45305;-88
2022/02/18 11:13:42;;;;;;;;;0.67;0.67;;;;;;;;5048679;28;45734;-87
2022/02/18 11:16:11;;;;;;;;;0.00;0.00;;;;;;;;5056146;28;45529;-88
2022/02/18 11:18:40;;;;;;;;;0.00;0.00;;;;;;;;5072220;27;45606;-88
2022/02/18 11:21:06;;;;;;;;;0.00;0.00;;;;;;;;5055383;28;45796;-89
2022/02/18 11:23:32;;;;;;;;;0.00;0.00;;;;;;;;5071529;27;45625;-88
2022/02/18 11:25:58;;;;;;;;;0.00;0.00;;;;;;;;5055614;28;45523;-88
2022/02/18 11:28:24;;;;;;;;;0.00;0.00;;;;;;;;5072510;28;45473;-89
2022/02/18 11:30:51;;;;;;;;;0.00;0.00;;;;;;;;5079205;27;50080;-89
2022/02/18 11:33:23;;;;;;;;;0.00;0.00;;;;;;;;5059773;28;45545;-86
2022/02/18 11:35:51;;;;;;;;;0.00;0.00;;;;;;;;5071237;28;45522;-85
2022/02/18 11:38:16;;;;;;;;;0.00;0.00;;;;;;;;5053306;28;47677;-86
2022/02/18 11:40:46;;;;;;;;;0.00;0.00;;;;;;;;5056398;28;45917;-85
2022/02/18 11:43:14;;;;;;;;;0.67;0.00;;;;;;;;5062021;28;45486;-86
2022/02/18 11:45:39;;;;;;;;;0.00;0.00;;;;;;;;5072500;27;45636;-87
2022/02/18 11:48:05;;;;;;;;;3.00;1.00;;;;;;;;5070110;27;45566;-89
2022/02/18 11:50:30;;;;;;;;;0.00;0.00;;;;;;;;5048167;28;45429;-88
2022/02/18 11:52:55;;;;;;;;;1.00;1.00;;;;;;;;5059570;28;45522;-92
2022/02/18 11:55:28;;;;;;;;;0.33;0.33;;;;;;;;5059034;28;45335;-91
2022/02/18 11:58:13;;;;;;;;;0.00;0.00;;;;;;;;5055658;28;47131;-88
2022/02/18 12:00:38;;;;;;;;;0.00;0.00;;;;;;;;5071826;28;45364;-86
2022/02/18 12:03:11;;;;;;;;;1.00;1.00;;;;;;;;5071506;28;45447;-88
2022/02/18 12:05:36;;;;;;;;;0.00;0.00;;;;;;;;5050892;28;45942;-91
2022/02/18 12:08:01;;;;;;;;;1.00;0.00;;;;;;;;5073941;28;45692;-89
2022/02/18 12:10:29;;;;;;;;;0.00;0.00;;;;;;;;5057108;28;46130;-89
2022/02/18 12:13:03;;;;;;;;;0.00;0.00;;;;;;;;5054499;28;45436;-90
2022/02/18 12:15:29;;;;;;;;;0.33;0.33;;;;;;;;5073269;28;45518;-87
2022/02/18 12:18:02;;;;;;;;;0.33;0.00;;;;;;;;5056906;28;47356;-89
2022/02/18 12:20:28;;;;;;;;;0.00;0.00;;;;;;;;5055192;28;45325;-88
2022/02/18 12:22:53;;;;;;;;;1.00;0.33;;;;;;;;5056409;28;45703;-90
2022/02/18 12:25:19;;;;;;;;;1.00;1.00;;;;;;;;5067156;27;45569;-89
2022/02/18 12:27:45;;;;;;;;;2.67;1.00;;;;;;;;5069968;28;45947;-86
2022/02/18 12:30:22;;;;;;;;;0.00;0.00;;;;;;;;5054415;28;45471;-87
2022/02/18 12:32:51;;;;;;;;;1.33;0.00;;;;;;;;5056652;28;45807;-88
2022/02/18 12:35:27;;;;;;;;;0.67;0.00;;;;;;;;5069115;28;45676;-87
2022/02/18 12:37:52;;;;;;;;;1.67;1.00;;;;;;;;5056866;27;47604;-87
2022/02/18 12:40:19;;;;;;;;;0.00;0.00;;;;;;;;5073167;27;45351;-88
2022/02/18 12:42:45;;;;;;;;;1.00;1.00;;;;;;;;5054453;28;45510;-86
2022/02/18 12:45:11;;;;;;;;;1.67;0.00;;;;;;;;5077537;27;45408;-86
2022/02/18 12:47:37;;;;;;;;;1.00;0.00;;;;;;;;5058148;27;48112;-86
2022/02/18 12:50:07;;;;;;;;;3.00;1.00;;;;;;;;5056847;27;45448;-85
2022/02/18 12:52:32;;;;;;;;;2.00;0.00;;;;;;;;5052411;27;45736;-87
2022/02/18 12:54:59;;;;;;;;;0.00;0.00;;;;;;;;5066232;28;45686;-86
2022/02/18 12:57:25;;;;;;;;;1.33;1.33;;;;;;;;5053330;28;47370;-85
2022/02/18 12:59:51;;;;;;;;;1.00;0.00;;;;;;;;5067138;27;45555;-86
2022/02/18 13:02:34;;;;;;;;;0.00;0.00;;;;;;;;5067011;27;45494;-85
2022/02/18 13:05:18;;;;;;;;;1.00;1.00;;;;;;;;5073079;28;45567;-85
2022/02/18 13:07:55;;;;;;;;;1.00;0.00;;;;;;;;5049432;28;47130;-85
2022/02/18 13:10:21;;;;;;;;;0.33;0.33;;;;;;;;5068850;28;45545;-84
2022/02/18 13:12:48;;;;;;;;;1.00;1.00;;;;;;;;5052003;28;45471;-84
2022/02/18 13:15:18;;;;;;;;;1.67;0.00;;;;;;;;5050373;28;45519;-85
2022/02/18 13:17:46;;;;;;;;;2.00;2.00;;;;;;;;5049645;28;47151;-84
2022/02/18 13:20:30;;;;;;;;;2.00;0.33;;;;;;;;5053629;27;45486;-84
2022/02/18 13:23:07;;;;;;;;;4.00;1.00;;;;;;;;5063998;27;45537;-84
2022/02/18 13:25:32;;;;;;;;;2.00;1.00;;;;;;;;5054886;28;45428;-84
2022/02/18 13:28:01;;;;;;;;;0.00;0.00;;;;;;;;5052932;28;48586;-84
2022/02/18 13:30:27;;;;;;;;;3.00;1.67;;;;;;;;5042731;27;45605;-84
2022/02/18 13:33:01;;;;;;;;;3.00;2.00;;;;;;;;5055059;28;45637;-84
2022/02/18 13:35:27;;;;;;;;;1.00;1.00;;;;;;;;5070368;28;45313;-84
2022/02/18 13:37:53;;;;;;;;;4.67;1.00;;;;;;;;5052905;28;46950;-85
2022/02/18 13:40:18;;;;;;;;;2.00;2.00;;;;;;;;5034966;28;45504;-85
2022/02/18 13:42:48;;;;;;;;;1.00;0.00;;;;;;;;5053081;28;45371;-84
2022/02/18 13:45:13;;;;;;;;;2.00;0.00;;;;;;;;5069425;28;45430;-85
2022/02/18 13:47:42;;;;;;;;;1.00;1.00;;;;;;;;5056474;28;46613;-85
2022/02/18 13:50:08;;;;;;;;;0.00;0.00;;;;;;;;5070539;28;45997;-86
2022/02/18 13:52:34;;;;;;;;;1.00;0.67;;;;;;;;5068869;27;46080;-86
2022/02/18 13:54:59;;;;;;;;;2.00;2.00;;;;;;;;5070101;28;45470;-85
2022/02/18 13:57:31;;;;;;;;;3.00;1.00;;;;;;;;5056845;28;49940;-85
2022/02/18 13:59:57;;;;;;;;;1.00;1.00;;;;;;;;5058759;27;45501;-85
2022/02/18 14:02:22;;;;;;;;;5.00;2.00;;;;;;;;5057939;28;45487;-85
2022/02/18 14:04:49;;;;;;;;;4.00;1.00;;;;;;;;5054247;28;45415;-85
2022/02/18 14:07:16;;;;;;;;;4.00;1.67;;;;;;;;5067484;27;45545;-85
2022/02/18 14:09:42;;;;;;;;;1.67;1.00;;;;;;;;5054549;28;45658;-85
2022/02/18 14:12:08;;;;;;;;;1.00;0.00;;;;;;;;5053623;28;51841;-85
2022/02/18 14:14:34;;;;;;;;;3.00;1.00;;;;;;;;5058719;27;50011;-84
2022/02/18 14:17:01;;;;;;;;;3.33;1.00;;;;;;;;5070935;27;46433;-85
2022/02/18 14:19:43;;;;;;;;;3.00;1.00;;;;;;;;5076404;28;45474;-86
2022/02/18 14:22:08;;;;;;;;;1.33;1.33;;;;;;;;5054455;28;46326;-83
2022/02/18 14:24:35;;;;;;;;;1.00;0.00;;;;;;;;5059144;28;45777;-83
2022/02/18 14:27:01;;;;;;;;;2.00;0.67;;;;;;;;5055009;28;46641;-83
2022/02/18 14:29:26;;;;;;;;;1.33;1.33;;;;;;;;5060721;28;45513;-84
2022/02/18 14:31:57;;;;;;;;;1.00;1.00;;;;;;;;5050615;28;45483;-83
2022/02/18 14:34:23;;;;;;;;;3.33;0.67;;;;;;;;5065865;28;45544;-84
2022/02/18 14:36:49;;;;;;;;;8.33;2.00;;;;;;;;5067752;27;46346;-84
2022/02/18 14:39:20;;;;;;;;;2.00;1.00;;;;;;;;5052164;28;46899;-84